Time;durP1;ratioP1;P1;durP2;ratioP2;P2;SDS_P1;SDS_P2;PMS_P1;PMS_P2;Temp;Humidity;BMP_temperature;BMP_pressure;BME280_temperature;BME280_humidity;BME280_pressure;Samples;Min_cycle;Max_cycle;Signal;HPM_P1;HPM_P2
2021/06/14 00:00:10;;;;;;;24.37;14.10;;;;;;;16.76;74.22;99135.78;4861357;29;20495;-90
2021/06/14 00:02:40;;;;;;;23.10;14.43;;;;;;;16.66;73.97;99120.53;4861921;29;20080;-84
2021/06/14 00:05:09;;;;;;;;;;;;;;;16.62;74.80;99138.13;4897055;29;20047;-85
2021/06/14 00:07:35;;;;;;;33.63;17.25;;;;;;;16.56;74.54;99136.84;4894247;29;20393;-84
2021/06/14 00:10:03;;;;;;;29.88;17.05;;;;;;;16.52;74.73;99158.00;4881541;29;20100;-83
2021/06/14 00:12:30;;;;;;;27.92;16.95;;;;;;;16.44;75.42;99152.31;4886685;29;20039;-83
2021/06/14 00:14:57;;;;;;;;;;;;;;;16.44;74.89;99152.31;4878155;29;20040;-83
2021/06/14 00:17:23;;;;;;;68.03;39.13;;;;;;;16.44;74.66;99146.78;4877793;29;19983;-83
2021/06/14 02:09:25;;;;;;;55.58;30.92;;;;;;;16.51;76.50;99195.84;4858197;29;20060;-84
2021/06/14 02:12:05;;;;;;;52.08;31.17;;;;;;;16.61;76.15;99206.34;4859852;29;20045;-87
2021/06/14 02:14:36;;;;;;;50.95;31.30;;;;;;;16.75;75.74;99216.16;4859912;29;20048;-88
2021/06/14 02:17:07;;;;;;;57.28;31.17;;;;;;;16.64;75.54;99199.31;4857894;29;20400;-86
2021/06/14 02:19:36;;;;;;;54.13;30.17;;;;;;;16.83;75.51;99223.47;4843117;29;20045;-87
2021/06/14 02:22:03;;;;;;;48.85;29.50;;;;;;;16.90;75.47;99227.22;4859817;29;20097;-86
2021/06/14 02:24:30;;;;;;;50.63;28.90;;;;;;;17.03;75.55;99244.47;4843023;29;20467;-85
2021/06/14 02:26:56;;;;;;;50.97;30.17;;;;;;;17.06;75.69;99251.25;4846249;29;20041;-85
2021/06/14 02:29:25;;;;;;;48.20;30.77;;;;;;;17.01;75.83;99251.50;4859422;29;20294;-86
2021/06/14 02:31:51;;;;;;;50.72;31.20;;;;;;;16.95;75.79;99236.38;4859207;29;20133;-85
2021/06/14 02:34:19;;;;;;;53.53;31.77;;;;;;;17.14;75.54;99264.88;4842525;29;20045;-85
2021/06/14 02:36:46;;;;;;;52.85;30.90;;;;;;;17.23;75.16;99263.88;4859483;29;20046;-85
2021/06/14 02:39:20;;;;;;;55.78;30.65;;;;;;;17.26;75.02;99265.94;4841867;29;20052;-87
2021/06/14 02:41:47;;;;;;;44.90;29.23;;;;;;;17.31;73.95;99246.31;4859189;29;20088;-85
2021/06/14 02:44:16;;;;;;;50.10;29.17;;;;;;;17.45;73.91;99266.00;4827012;29;20041;-87
2021/06/14 02:46:49;;;;;;;48.60;28.08;;;;;;;17.31;73.74;99235.25;4858013;29;20049;-85
2021/06/14 02:49:17;;;;;;;43.08;27.20;;;;;;;17.46;74.22;99255.75;4867356;29;20068;-86
2021/06/14 02:51:45;;;;;;;44.47;26.47;;;;;;;17.47;73.96;99262.84;4858292;29;20053;-85
2021/06/14 02:54:16;;;;;;;38.40;23.83;;;;;;;17.49;73.82;99266.88;4853566;29;20049;-92
2021/06/14 02:56:43;;;;;;;43.08;25.58;;;;;;;17.56;74.06;99277.28;4843241;29;20085;-96
2021/06/14 02:59:12;;;;;;;45.55;25.30;;;;;;;17.74;74.10;99294.25;4829531;29;20479;-86
2021/06/14 03:01:44;;;;;;;44.40;25.60;;;;;;;17.53;73.62;99255.88;4807674;29;20042;-86
2021/06/14 03:04:15;;;;;;;52.78;27.67;;;;;;;17.74;73.21;99272.94;4821599;29;20054;-91
2021/06/14 03:06:43;;;;;;;55.50;27.23;;;;;;;17.76;73.08;99264.28;4804915;29;20054;-84
2021/06/14 03:09:10;;;;;;;50.25;28.02;;;;;;;17.96;73.02;99287.25;4828517;29;20046;-84
2021/06/14 03:11:43;;;;;;;41.08;23.45;;;;;;;18.13;72.22;99299.84;4827478;29;20569;-87
2021/06/14 03:14:15;;;;;;;46.58;24.88;;;;;;;18.13;72.79;99292.34;4821996;29;20443;-88
2021/06/14 03:16:45;;;;;;;34.38;20.33;;;;;;;18.20;72.54;99302.75;4825446;29;20055;-84
2021/06/14 03:19:13;;;;;;;24.08;15.27;;;;;;;18.23;71.36;99304.81;4805900;29;20540;-96
2021/06/14 03:21:42;;;;;;;21.38;13.43;;;;;;;18.35;71.40;99309.41;4821122;29;20089;-84
2021/06/14 03:24:10;;;;;;;20.42;13.80;;;;;;;18.42;71.49;99315.06;4821673;29;20042;-83
2021/06/14 03:26:41;;;;;;;21.83;13.60;;;;;;;18.22;71.15;99272.78;4836821;29;20042;-84
2021/06/14 03:29:09;;;;;;;20.98;12.95;;;;;;;18.59;71.07;99319.34;4834672;29;20072;-84
2021/06/14 03:31:37;;;;;;;19.55;13.27;;;;;;;18.50;70.53;99287.16;4820963;29;20046;-95
2021/06/14 03:36:31;;;;;;;15.43;9.95;;;;;;;18.78;68.30;99313.81;4822958;29;20544;-84
2021/06/14 03:39:00;;;;;;;16.48;8.95;;;;;;;18.87;67.54;99321.84;4823242;29;20053;-85
2021/06/14 03:43:52;;;;;;;17.53;8.67;;;;;;;18.97;66.89;99322.06;4823045;29;20050;-84
2021/06/14 03:46:18;;;;;;;11.50;7.90;;;;;;;18.97;67.33;99304.63;4837137;29;20085;-91
2021/06/14 03:48:45;;;;;;;12.32;7.68;;;;;;;19.00;66.35;99301.91;4822926;29;20056;-84
2021/06/14 03:51:12;;;;;;;10.20;6.30;;;;;;;19.23;65.69;99326.03;4852007;29;20053;-94
2021/06/14 03:53:41;;;;;;;12.38;6.53;;;;;;;19.32;65.84;99325.81;4822817;29;20043;-85
2021/06/14 03:56:09;;;;;;;11.68;6.35;;;;;;;19.32;64.46;99320.25;4821740;29;20056;-84
2021/06/14 03:58:38;;;;;;;10.75;5.72;;;;;;;19.30;65.24;99315.06;4821626;29;20047;-84
2021/06/14 04:01:04;;;;;;;10.82;5.75;;;;;;;19.42;65.08;99309.34;4822816;29;20054;-85
2021/06/14 04:03:31;;;;;;;12.13;5.97;;;;;;;19.49;65.19;99306.66;4825201;29;20173;-84
2021/06/14 04:06:01;;;;;;;12.13;5.90;;;;;;;19.63;64.72;99299.72;4825987;29;20042;-83
2021/06/14 04:08:32;;;;;;;32.22;6.93;;;;;;;19.57;64.01;99281.81;4855311;29;20062;-94
2021/06/14 04:10:58;;;;;;;9.25;5.20;;;;;;;19.79;63.63;99314.25;4806735;29;20050;-84
2021/06/14 04:13:24;;;;;;;60.23;8.03;;;;;;;19.86;64.29;99308.81;4837086;29;20046;-84
2021/06/14 04:15:51;;;;;;;14.88;6.20;;;;;;;19.91;64.19;99316.81;4823585;29;20047;-96
2021/06/14 04:18:17;;;;;;;6.70;5.13;;;;;;;19.88;62.56;99314.78;4824986;29;20046;-96
2021/06/14 04:20:43;;;;;;;14.10;5.33;;;;;;;19.73;63.19;99298.31;4826177;29;20544;-85
2021/06/14 04:23:10;;;;;;;11.10;5.13;;;;;;;20.06;62.26;99336.41;4826087;29;20053;-84
2021/06/14 04:25:36;;;;;;;15.85;5.63;;;;;;;19.95;62.81;99314.88;4824883;29;20336;-87
2021/06/14 04:28:06;;;;;;;6.63;4.97;;;;;;;20.23;62.38;99346.16;4824357;29;20474;-90
2021/06/14 04:30:34;;;;;;;16.05;5.68;;;;;;;20.27;62.02;99342.25;4839860;29;20046;-84
2021/06/14 04:33:00;;;;;;;9.75;5.38;;;;;;;20.35;61.37;99346.72;4824868;29;20584;-84
2021/06/14 04:35:26;;;;;;;12.10;5.65;;;;;;;20.28;62.50;99332.75;4825701;29;20504;-84
2021/06/14 04:37:52;;;;;;;10.95;5.68;;;;;;;20.25;61.67;99314.06;4839879;29;20086;-96
2021/06/14 04:40:19;;;;;;;9.93;5.43;;;;;;;20.50;61.55;99344.13;4824694;29;20102;-84
2021/06/14 04:42:45;;;;;;;8.32;4.53;;;;;;;20.54;61.40;99347.75;4825800;29;20142;-84
2021/06/14 04:47:37;;;;;;;17.43;6.97;;;;;;;20.70;60.51;99336.44;4825400;29;20149;-85
2021/06/14 04:50:06;;;;;;;10.13;4.93;;;;;;;20.92;59.44;99354.91;4825573;29;20047;-85
2021/06/14 04:52:33;;;;;;;12.65;5.55;;;;;;;20.95;59.66;99359.72;4826008;29;20061;-94
2021/06/14 04:55:00;;;;;;;8.00;4.72;;;;;;;21.00;59.49;99361.38;4854512;29;20175;-89
2021/06/14 04:57:28;;;;;;;16.63;6.82;;;;;;;20.96;60.41;99344.66;4825406;29;20054;-84
2021/06/14 04:59:54;;;;;;;19.00;7.43;;;;;;;21.16;60.87;99347.19;4825211;29;20129;-84
2021/06/14 05:02:21;;;;;;;36.83;7.37;;;;;;;21.33;61.14;99357.69;4831895;29;20190;-84
2021/06/14 05:04:47;;;;;;;12.40;5.65;;;;;;;21.39;60.70;99358.16;4857760;29;20360;-92
2021/06/14 05:07:13;;;;;;;14.85;6.15;;;;;;;21.56;59.90;99368.63;4860291;29;20149;-85
2021/06/14 05:09:39;;;;;;;9.35;5.93;;;;;;;21.65;59.98;99371.88;4825124;29;20046;-85
2021/06/14 05:12:06;;;;;;;9.25;5.72;;;;;;;21.70;60.24;99357.59;4839128;29;20106;-96
2021/06/14 05:14:32;;;;;;;;;;;;;;;21.85;58.11;99377.97;4853355;29;20035;-96
2021/06/14 05:16:58;;;;;;;23.35;6.45;;;;;;;21.71;59.00;99341.69;4825330;29;19947;-96
2021/06/14 05:19:25;;;;;;;39.53;8.25;;;;;;;21.81;56.95;99368.81;4839643;29;20065;-89
2021/06/14 05:21:51;;;;;;;19.63;6.83;;;;;;;21.86;57.45;99379.59;4825563;29;20046;-95
2021/06/14 05:24:17;;;;;;;17.58;6.22;;;;;;;21.95;56.79;99390.34;4825425;29;20053;-96
2021/06/14 05:26:46;;;;;;;13.52;5.45;;;;;;;22.04;57.17;99393.59;4839602;29;20111;-85
2021/06/14 05:29:13;;;;;;;33.70;6.85;;;;;;;22.09;58.33;99390.47;4824152;29;20083;-95
2021/06/14 05:31:39;;;;;;;22.63;6.38;;;;;;;22.17;56.95;99380.19;4825825;29;20054;-85
2021/06/14 05:34:05;;;;;;;;;;;;;;;22.26;56.98;99383.44;4824255;29;20129;-85
2021/06/14 05:36:31;;;;;;;9.95;4.80;;;;;;;22.01;56.13;99352.63;4825752;29;20027;-84
2021/06/14 05:39:01;;;;;;;19.30;5.55;;;;;;;22.14;56.16;99373.38;4830719;29;20058;-85
2021/06/14 05:41:27;;;;;;;22.92;5.30;;;;;;;21.97;56.39;99341.47;4827313;29;20047;-95
2021/06/14 05:43:53;;;;;;;10.07;5.30;;;;;;;22.38;56.50;99396.19;4856447;29;20184;-86
2021/06/14 05:46:19;;;;;;;18.33;5.93;;;;;;;22.38;56.73;99383.06;4830579;29;20294;-94
2021/06/14 05:48:45;;;;;;;14.13;4.93;;;;;;;22.36;55.95;99379.88;4829133;29;20050;-85
2021/06/14 05:51:11;;;;;;;21.27;6.05;;;;;;;22.44;57.06;99389.84;4842898;29;20133;-93
2021/06/14 05:53:38;;;;;;;14.63;5.25;;;;;;;22.26;57.22;99363.94;4825145;29;20046;-95
2021/06/14 05:56:04;;;;;;;10.05;5.10;;;;;;;22.56;56.12;99399.88;4824798;29;20049;-84
2021/06/14 05:58:30;;;;;;;10.07;5.15;;;;;;;22.47;56.66;99374.34;4825534;29;20054;-96
2021/06/14 06:00:56;;;;;;;8.68;4.80;;;;;;;22.67;56.59;99395.13;4825363;29;20046;-82
2021/06/14 06:03:23;;;;;;;16.25;12.30;;;;;;;22.86;55.45;99399.56;4837651;29;20590;-80
2021/06/14 06:05:48;;;;;;;10.20;4.93;;;;;;;22.84;53.69;99403.94;4822975;29;20074;-81
2021/06/14 06:08:14;;;;;;;10.00;3.90;;;;;;;22.88;52.18;99407.53;4848646;29;20069;-83
2021/06/14 06:10:40;;;;;;;4.73;3.83;;;;;;;22.87;52.61;99395.59;4860247;29;20803;-85
2021/06/14 06:13:07;;;;;;;8.70;4.50;;;;;;;23.00;53.79;99401.63;4844081;29;20146;-85
2021/06/14 06:15:33;;;;;;;7.13;3.95;;;;;;;23.10;54.45;99414.00;4859209;29;20514;-84
2021/06/14 06:17:59;;;;;;;44.72;31.55;;;;;;;23.11;55.00;99399.69;4832342;29;20038;-85
2021/06/14 06:20:25;;;;;;;25.00;11.33;;;;;;;23.35;55.12;99406.47;4844361;29;20049;-87
2021/06/14 06:22:52;;;;;;;26.90;17.95;;;;;;;23.45;55.34;99413.25;4861061;29;20049;-81
2021/06/14 06:25:20;;;;;;;61.40;41.17;;;;;;;23.61;55.06;99415.66;4858994;29;20041;-82
2021/06/14 06:27:48;;;;;;;57.47;32.58;;;;;;;23.73;54.36;99418.06;4860086;29;20053;-82
2021/06/14 06:30:19;;;;;;;60.10;38.22;;;;;;;23.76;54.14;99414.47;4862766;29;20052;-81
2021/06/14 06:32:47;;;;;;;35.72;19.65;;;;;;;23.93;54.46;99421.25;4858449;29;20073;-83
2021/06/14 06:35:13;;;;;;;37.80;22.33;;;;;;;23.97;53.68;99418.44;4842450;29;20507;-77
2021/06/14 06:37:40;;;;;;;34.00;20.52;;;;;;;24.07;54.45;99417.63;4862291;29;20041;-82
2021/06/14 06:40:07;;;;;;;50.53;35.17;;;;;;;24.23;53.23;99425.59;4873277;29;20056;-77
2021/06/14 06:42:35;;;;;;;64.30;38.80;;;;;;;24.27;53.40;99429.97;4857889;29;20045;-79
2021/06/14 06:45:03;;;;;;;19.75;10.60;;;;;;;24.18;52.16;99424.00;4858323;29;20407;-80
2021/06/14 06:47:29;;;;;;;66.70;47.97;;;;;;;24.31;52.84;99429.97;4857436;29;20041;-79
2021/06/14 06:49:56;;;;;;;25.20;13.35;;;;;;;24.40;52.62;99430.31;4857492;29;20052;-82
2021/06/14 06:52:22;;;;;;;36.67;22.88;;;;;;;24.37;52.59;99423.56;4858523;29;20052;-82
2021/06/14 06:54:48;;;;;;;31.70;22.83;;;;;;;24.38;51.64;99441.13;4867227;29;20048;-78
2021/06/14 06:57:16;;;;;;;46.85;30.52;;;;;;;24.44;51.23;99433.94;4857726;29;20718;-77
2021/06/14 06:59:43;;;;;;;11.93;5.82;;;;;;;24.38;48.70;99436.31;4862137;29;20202;-78
2021/06/14 07:02:10;;;;;;;26.52;19.42;;;;;;;24.47;49.99;99447.13;4866437;29;20642;-79
2021/06/14 07:04:37;;;;;;;8.55;5.72;;;;;;;24.37;49.12;99440.31;4864364;29;20049;-78
2021/06/14 07:07:06;;;;;;;14.43;9.23;;;;;;;24.24;50.13;99418.78;4867495;29;20407;-79
2021/06/14 07:09:33;;;;;;;8.88;5.22;;;;;;;24.38;50.67;99444.72;4857326;29;20041;-79
2021/06/14 07:11:59;;;;;;;12.27;8.45;;;;;;;24.41;48.73;99447.94;4859658;29;20546;-80
2021/06/14 07:14:25;;;;;;;45.92;30.00;;;;;;;24.56;50.24;99452.25;4862795;29;20052;-80
2021/06/14 07:16:52;;;;;;;23.13;15.98;;;;;;;24.54;50.04;99447.09;4860143;29;20045;-81
2021/06/14 07:19:18;;;;;;;31.33;21.85;;;;;;;24.71;50.07;99458.63;4854587;29;20037;-79
2021/06/14 07:21:45;;;;;;;20.65;13.23;;;;;;;24.62;48.66;99459.03;4858233;29;20139;-81
2021/06/14 07:24:11;;;;;;;20.98;10.80;;;;;;;24.66;50.31;99445.84;4858735;29;20128;-79
2021/06/14 07:26:38;;;;;;;21.67;14.75;;;;;;;24.84;50.59;99456.97;4859377;29;20060;-80
2021/06/14 07:29:04;;;;;;;64.85;31.83;;;;;;;24.90;49.04;99448.94;4852646;29;20458;-83
2021/06/14 07:31:31;;;;;;;18.15;10.73;;;;;;;24.92;47.35;99466.91;4853146;29;20060;-82
2021/06/14 07:34:00;;;;;;;50.45;33.00;;;;;;;24.98;48.25;99465.28;4853234;29;20045;-85
2021/06/14 07:36:26;;;;;;;13.45;7.22;;;;;;;24.96;46.02;99461.28;4848983;29;20121;-82
2021/06/14 07:38:52;;;;;;;16.63;6.75;;;;;;;24.88;47.57;99445.75;4853702;29;20060;-82
2021/06/14 07:41:19;;;;;;;61.40;40.63;;;;;;;25.05;48.46;99456.84;4857947;29;20044;-82
2021/06/14 07:43:44;;;;;;;8.55;4.72;;;;;;;25.05;47.01;99464.44;4863013;29;20584;-83
2021/06/14 07:46:10;;;;;;;53.78;35.20;;;;;;;25.27;49.03;99459.56;4858230;29;20068;-83
2021/06/14 07:48:36;;;;;;;15.00;9.10;;;;;;;25.44;47.45;99467.06;4856631;29;20093;-83
2021/06/14 07:51:04;;;;;;;7.70;4.47;;;;;;;25.49;45.95;99463.78;4854792;29;20121;-82
2021/06/14 07:53:31;;;;;;;21.20;11.60;;;;;;;25.38;46.20;99465.88;4855585;29;20041;-83
2021/06/14 07:55:59;;;;;;;11.02;7.55;;;;;;;25.43;47.15;99473.88;4855807;29;20053;-82
2021/06/14 07:58:25;;;;;;;52.35;32.75;;;;;;;25.62;47.01;99466.91;4855671;29;20214;-82
2021/06/14 08:00:52;;;;;;;8.77;6.35;;;;;;;25.62;45.97;99466.91;4854943;29;20039;-81
2021/06/14 08:03:22;;;;;;;29.95;20.08;;;;;;;25.52;46.24;99465.00;4854262;29;20052;-81
2021/06/14 08:05:49;;;;;;;10.88;5.63;;;;;;;25.61;46.45;99472.94;4855074;29;20124;-81
2021/06/14 08:08:15;;;;;;;30.77;20.90;;;;;;;25.74;45.91;99474.03;4853811;29;20076;-81
2021/06/14 08:10:45;;;;;;;10.82;6.28;;;;;;;25.83;45.28;99481.97;4855635;29;21869;-80
2021/06/14 08:13:13;;;;;;;28.33;17.02;;;;;;;25.89;46.32;99486.72;4872404;29;20507;-81
2021/06/14 08:15:41;;;;;;;17.63;9.30;;;;;;;25.94;45.69;99486.28;4856234;29;20121;-81
2021/06/14 08:26:27;;;;;;;15.98;8.32;;;;;;;26.00;45.07;99481.84;4863656;29;20535;-80
2021/06/14 08:28:55;;;;;;;8.68;5.63;;;;;;;26.02;45.39;99487.03;4856146;29;20056;-80
2021/06/14 08:31:24;;;;;;;15.40;10.93;;;;;;;25.97;44.45;99479.88;4851383;29;20041;-81
2021/06/14 08:33:51;;;;;;;7.35;3.60;;;;;;;26.03;43.55;99488.63;4852083;29;20420;-78
2021/06/14 08:36:18;;;;;;;7.35;5.80;;;;;;;26.05;45.07;99482.59;4850833;29;20037;-80
2021/06/14 08:38:44;;;;;;;10.90;7.05;;;;;;;26.13;44.50;99478.53;4851974;29;20048;-80
2021/06/14 08:41:12;;;;;;;6.20;4.78;;;;;;;26.19;44.15;99479.66;4833588;29;20405;-80
2021/06/14 08:43:39;;;;;;;5.35;3.80;;;;;;;26.15;42.50;99485.31;4851238;29;20104;-81
2021/06/14 08:46:06;;;;;;;6.18;3.63;;;;;;;26.05;43.39;99489.00;4851097;29;20447;-81
2021/06/14 08:48:32;;;;;;;15.20;9.13;;;;;;;26.09;45.00;99488.97;4849992;29;20108;-80
2021/06/14 08:50:58;;;;;;;24.75;6.15;;;;;;;26.12;44.03;99485.34;4850191;29;20354;-80
2021/06/14 08:53:24;;;;;;;15.52;7.22;;;;;;;26.24;44.00;99484.81;4857687;29;20045;-81
2021/06/14 08:55:51;;;;;;;5.80;4.30;;;;;;;26.34;44.29;99483.94;4867777;29;20474;-81
2021/06/14 08:58:17;;;;;;;10.18;5.22;;;;;;;26.43;43.57;99495.44;4864854;29;20091;-80
2021/06/14 09:00:44;;;;;;;8.65;6.13;;;;;;;26.48;44.41;99495.00;4849981;29;20539;-81
2021/06/14 09:03:10;;;;;;;10.20;3.88;;;;;;;26.51;42.97;99493.38;4849226;29;20046;-81
2021/06/14 09:05:37;;;;;;;12.20;7.63;;;;;;;26.53;44.17;99493.78;4853524;29;20041;-81
2021/06/14 09:08:14;;;;;;;11.15;6.93;;;;;;;26.57;43.26;99500.13;4848770;29;21834;-81
2021/06/14 09:10:42;;;;;;;5.13;4.07;;;;;;;26.65;42.73;99495.25;4854305;29;20055;-81
2021/06/14 09:13:31;;;;;;;8.43;5.88;;;;;;;26.71;42.98;99502.78;4849166;29;20045;-81
2021/06/14 09:16:09;;;;;;;4.60;3.78;;;;;;;26.76;42.40;99500.75;4847912;29;20577;-75
2021/06/14 09:18:37;;;;;;;7.43;4.95;;;;;;;26.74;41.55;99498.34;4848000;29;20502;-85
2021/06/14 09:21:15;;;;;;;10.98;5.22;;;;;;;26.92;41.13;99501.75;4848464;29;20054;-78
2021/06/14 09:23:53;;;;;;;12.57;3.90;;;;;;;27.08;41.86;99505.94;4851259;29;20045;-82
2021/06/14 09:26:30;;;;;;;;;;;;;;;27.08;42.46;99501.13;4861852;29;20053;-82
2021/06/14 09:29:06;;;;;;;7.88;3.90;;;;;;;27.08;41.67;99500.34;4859906;29;20018;-79
2021/06/14 09:31:49;;;;;;;13.05;4.22;;;;;;;26.96;42.01;99493.28;4861593;29;20048;-84
2021/06/14 09:34:16;;;;;;;7.25;3.88;;;;;;;26.99;40.83;99500.03;4861381;29;20049;-82
2021/06/14 09:36:55;;;;;;;49.72;5.03;;;;;;;27.01;43.92;99497.63;4860417;29;20128;-82
2021/06/14 09:39:23;;;;;;;13.40;4.10;;;;;;;27.17;43.04;99497.84;4859026;29;20213;-77
2021/06/14 09:44:33;;;;;;;8.02;4.53;;;;;;;27.08;42.16;99475.06;4861543;29;20049;-89
2021/06/14 09:47:04;;;;;;;13.07;4.55;;;;;;;27.18;41.81;99488.19;4860249;29;20616;-79
2021/06/14 09:49:33;;;;;;;6.43;4.07;;;;;;;27.25;42.72;99484.50;4860646;29;20052;-93
2021/06/14 09:51:59;;;;;;;9.23;4.30;;;;;;;27.39;41.31;99487.91;4859819;29;20784;-78
2021/06/14 09:54:31;;;;;;;11.98;4.60;;;;;;;27.47;42.17;99474.56;4860675;29;20555;-91
2021/06/14 09:57:00;;;;;;;8.50;3.95;;;;;;;27.46;40.48;99481.41;4859938;29;20046;-88
2021/06/14 09:59:29;;;;;;;9.90;5.80;;;;;;;27.54;42.49;99482.06;4850074;29;20038;-75
2021/06/14 10:02:18;;;;;;;16.20;4.78;;;;;;;27.52;41.62;99473.31;4857136;29;20037;-77
2021/06/14 10:04:47;;;;;;;10.38;4.63;;;;;;;27.32;41.69;99482.41;4859508;29;20101;-78
2021/06/14 10:07:17;;;;;;;4.30;3.90;;;;;;;26.96;40.94;99465.22;4860767;29;20545;-79
2021/06/14 10:09:48;;;;;;;5.38;4.20;;;;;;;26.82;42.11;99468.19;4861087;29;20077;-86
2021/06/14 10:15:04;;;;;;;11.10;5.60;;;;;;;27.03;43.60;99470.75;5275299;23;20057;-85
2021/06/14 10:17:36;;;;;;;6.35;4.57;;;;;;;27.23;44.12;99467.31;4879855;29;20048;-92
2021/06/14 10:20:12;;;;;;;7.75;4.55;;;;;;;27.31;42.89;99463.94;4881886;29;20052;-85
2021/06/14 10:22:38;;;;;;;8.13;4.75;;;;;;;27.30;42.61;99472.81;4885485;29;20514;-89
2021/06/14 10:25:07;;;;;;;8.65;4.55;;;;;;;27.18;42.11;99471.34;4882177;29;20052;-84
2021/06/14 10:27:35;;;;;;;6.03;4.10;;;;;;;26.98;42.72;99474.00;4879368;29;20044;-83
2021/06/14 10:30:06;;;;;;;7.45;4.60;;;;;;;27.02;42.18;99476.75;4882092;29;20128;-84
2021/06/14 10:32:34;;;;;;;5.00;4.50;;;;;;;27.15;43.26;99475.81;4895407;29;20048;-90
2021/06/14 10:35:01;;;;;;;6.45;4.10;;;;;;;27.33;41.75;99460.75;4889624;29;20135;-84
2021/06/14 10:37:29;;;;;;;7.38;4.47;;;;;;;27.45;42.23;99454.56;4882592;29;20088;-89
2021/06/14 10:39:55;;;;;;;12.77;5.55;;;;;;;27.67;43.56;99469.03;4896815;29;20044;-92
2021/06/14 10:42:23;;;;;;;10.15;5.60;;;;;;;27.82;39.43;99464.81;4897224;29;20104;-82
2021/06/14 10:44:49;;;;;;;5.55;4.15;;;;;;;27.68;40.54;99453.75;4897596;29;20052;-81
2021/06/14 10:47:15;;;;;;;6.60;4.28;;;;;;;27.66;41.04;99461.84;4880159;29;20129;-81
2021/06/14 10:49:42;;;;;;;;;;;;;;;27.72;41.97;99468.56;4878879;29;20523;-83
2021/06/14 10:52:09;;;;;;;12.82;4.13;;;;;;;27.78;41.68;99452.03;4880782;29;20358;-82
2021/06/14 10:54:41;;;;;;;8.10;3.50;;;;;;;27.81;40.91;99448.38;4897487;29;20049;-87
2021/06/14 10:57:09;;;;;;;4.13;3.35;;;;;;;27.89;39.37;99446.25;4884376;29;20545;-92
2021/06/14 10:59:44;;;;;;;4.97;3.30;;;;;;;27.98;39.63;99460.53;4843455;29;20428;-91
2021/06/14 11:02:12;;;;;;;8.25;3.30;;;;;;;27.81;39.44;99420.28;4859215;29;20442;-84
2021/06/14 11:04:42;;;;;;;5.63;3.65;;;;;;;27.91;39.09;99455.03;4872841;29;20044;-84
2021/06/14 11:07:10;;;;;;;6.82;3.40;;;;;;;27.62;40.05;99467.50;4878863;29;20455;-87
2021/06/14 11:09:40;;;;;;;5.07;3.17;;;;;;;27.38;39.72;99458.25;4885221;29;20060;-84
2021/06/14 11:12:11;;;;;;;3.67;2.92;;;;;;;27.43;38.64;99454.16;4896104;29;20522;-86
2021/06/14 11:14:42;;;;;;;5.88;3.20;;;;;;;27.69;38.86;99455.38;4885293;29;20423;-83
2021/06/14 11:17:25;;;;;;;9.23;3.90;;;;;;;27.97;39.92;99444.91;4878778;29;20045;-90
2021/06/14 11:20:12;;;;;;;33.15;4.68;;;;;;;28.14;39.12;99440.97;4890717;29;20070;-90
2021/06/14 11:22:50;;;;;;;5.13;3.65;;;;;;;28.23;37.56;99448.84;4882863;29;20071;-81
2021/06/14 11:25:18;;;;;;;7.15;3.70;;;;;;;28.38;37.80;99443.72;4876639;29;20037;-88
2021/06/14 11:27:44;;;;;;;6.78;3.70;;;;;;;28.46;37.56;99446.03;4877637;29;20053;-82
2021/06/14 11:30:14;;;;;;;5.18;3.67;;;;;;;28.39;36.09;99439.72;4877944;29;20080;-88
2021/06/14 11:32:40;;;;;;;6.10;3.63;;;;;;;28.46;37.72;99436.78;4877444;29;20082;-83
2021/06/14 11:35:07;;;;;;;;;;;;;;;28.31;38.65;99442.66;4877205;29;20096;-83
2021/06/14 11:37:45;;;;;;;7.03;3.60;;;;;;;28.43;38.56;99424.38;4877244;29;19924;-82
2021/06/14 11:40:15;;;;;;;5.20;3.80;;;;;;;28.75;38.69;99440.63;4881718;29;20040;-91
2021/06/14 11:42:49;;;;;;;5.32;3.30;;;;;;;28.82;36.32;99438.88;4894613;29;20135;-82
2021/06/14 11:45:32;;;;;;;5.83;3.00;;;;;;;28.72;34.69;99406.94;4896706;29;20140;-83
2021/06/14 11:48:03;;;;;;;4.75;3.08;;;;;;;29.00;36.48;99431.66;4895268;29;20073;-87
2021/06/14 11:50:31;;;;;;;4.32;3.42;;;;;;;29.10;36.39;99427.00;4895878;29;20052;-83
2021/06/14 11:53:05;;;;;;;4.50;3.70;;;;;;;29.28;36.53;99426.63;4878326;29;20041;-84
2021/06/14 11:55:35;;;;;;;16.92;3.70;;;;;;;29.40;36.30;99422.31;4877984;29;20467;-83
2021/06/14 11:58:04;;;;;;;7.95;4.88;;;;;;;29.58;35.33;99430.34;4878039;29;20045;-83
2021/06/14 12:00:39;;;;;;;7.45;4.07;;;;;;;29.73;35.45;99426.78;4878298;29;20463;-83
2021/06/14 12:03:22;;;;;;;5.07;3.60;;;;;;;29.88;36.00;99429.22;4878025;29;20052;-83
2021/06/14 12:05:50;;;;;;;11.77;4.00;;;;;;;29.76;34.27;99418.66;4890740;29;20053;-82
2021/06/14 12:08:25;;;;;;;10.07;4.20;;;;;;;29.70;35.28;99426.84;4879849;29;20049;-93
2021/06/14 12:10:53;;;;;;;5.57;3.03;;;;;;;29.75;34.60;99431.94;4896097;29;20086;-82
2021/06/14 12:13:22;;;;;;;6.10;3.55;;;;;;;29.62;34.47;99417.78;4896257;29;20053;-83
2021/06/14 12:15:54;;;;;;;3.70;3.13;;;;;;;29.87;35.59;99427.66;4894657;29;20052;-82
2021/06/14 12:18:22;;;;;;;8.48;5.15;;;;;;;30.05;35.09;99421.53;4896391;29;20479;-83
2021/06/14 12:21:08;;;;;;;;;;;;;;;30.12;32.17;99424.16;4892235;29;20045;-89
2021/06/14 12:23:39;;;;;;;10.48;3.50;;;;;;;30.03;33.61;99419.13;4876704;29;19923;-93
2021/06/14 12:26:11;;;;;;;20.65;3.40;;;;;;;29.94;33.27;99410.53;4880954;29;20044;-83
2021/06/14 12:28:40;;;;;;;19.13;13.95;;;;;;;29.69;32.78;99419.63;4881097;29;20432;-87
2021/06/14 12:33:37;;;;;;;10.32;4.10;;;;;;;29.52;31.71;99435.72;4880931;29;20455;-82
2021/06/14 12:36:05;;;;;;;9.68;5.38;;;;;;;29.64;33.25;99426.59;4892871;29;20055;-83
2021/06/14 12:41:00;;;;;;;4.10;3.50;;;;;;;30.31;34.32;99414.78;4899611;29;20055;-83
2021/06/14 12:43:33;;;;;;;8.35;4.20;;;;;;;30.41;31.57;99418.56;4895306;29;20110;-82
2021/06/14 12:46:00;;;;;;;8.57;3.97;;;;;;;30.43;34.00;99422.53;4880957;29;20071;-82
2021/06/14 12:48:27;;;;;;;4.70;3.20;;;;;;;29.97;31.57;99420.94;4880488;29;20493;-83
2021/06/14 12:53:22;;;;;;;7.05;3.53;;;;;;;29.61;32.99;99419.03;4899390;29;20135;-83
2021/06/14 12:55:51;;;;;;;3.80;3.40;;;;;;;29.41;32.70;99419.06;4898061;29;20430;-83
2021/06/14 12:58:20;;;;;;;3.95;3.40;;;;;;;29.13;32.68;99437.41;4897212;29;20044;-82
2021/06/14 13:00:49;;;;;;;5.10;3.38;;;;;;;29.10;33.26;99424.19;4899238;29;20418;-82
2021/06/14 13:03:17;;;;;;;5.13;4.40;;;;;;;28.98;33.54;99433.31;4898933;29;20047;-82
2021/06/14 13:05:47;;;;;;;8.32;5.78;;;;;;;28.64;34.59;99425.97;4897767;29;20041;-83
2021/06/14 13:08:16;;;;;;;4.45;3.60;;;;;;;28.52;35.57;99438.66;4889762;29;20048;-82
2021/06/14 13:10:47;;;;;;;5.38;4.28;;;;;;;28.58;34.20;99430.53;4880214;29;20052;-90
2021/06/14 13:13:21;;;;;;;5.35;3.60;;;;;;;28.56;34.53;99427.34;4880491;29;20041;-83
2021/06/14 13:16:09;;;;;;;4.25;3.42;;;;;;;28.53;35.55;99433.84;4879849;29;20056;-82
2021/06/14 13:18:39;;;;;;;14.52;3.42;;;;;;;28.41;36.81;99420.41;4879716;29;20089;-82
2021/06/14 13:23:59;;;;;;;8.20;3.70;;;;;;;28.60;37.02;99432.91;4859044;29;20064;-78
2021/06/14 13:26:41;;;;;;;8.18;3.33;;;;;;;28.56;36.78;99424.53;4843746;29;20057;-78
2021/06/14 13:29:26;;;;;;;16.25;3.92;;;;;;;28.50;37.23;99429.06;4857881;29;20054;-77
2021/06/14 13:32:35;;;;;;;9.00;3.85;;;;;;;28.45;37.44;99429.59;4859009;29;20081;-78
2021/06/14 13:35:04;;;;;;;8.30;3.42;;;;;;;28.36;37.60;99418.09;4858279;29;20148;-76
2021/06/14 13:37:46;;;;;;;19.13;4.10;;;;;;;28.26;37.46;99429.09;4856617;29;20080;-86
2021/06/14 13:40:16;;;;;;;6.57;3.80;;;;;;;28.19;36.62;99420.00;4858897;29;20562;-83
2021/06/14 13:42:48;;;;;;;7.93;3.80;;;;;;;28.07;37.44;99413.00;4858814;29;20117;-78
2021/06/14 13:45:27;;;;;;;43.53;6.43;;;;;;;28.14;38.83;99421.28;4858617;29;20060;-78
2021/06/14 13:48:05;;;;;;;21.30;5.07;;;;;;;28.00;36.62;99424.38;4842825;29;20068;-78
2021/06/14 13:50:40;;;;;;;9.05;4.20;;;;;;;27.97;38.64;99417.59;4846601;29;20157;-77
2021/06/14 13:53:11;;;;;;;32.47;6.45;;;;;;;27.95;38.32;99422.06;4843321;29;20041;-77
2021/06/14 13:55:53;;;;;;;23.25;4.93;;;;;;;27.88;38.34;99422.97;4875012;29;20120;-77
2021/06/14 13:58:36;;;;;;;8.52;4.00;;;;;;;27.83;39.29;99424.25;4878581;29;20044;-78